createdAt,value
2022-09-28T00:01:54.632Z,98398.19
2022-09-28T00:04:21.380Z,98397.66
2022-09-28T00:06:48.917Z,98399.00
2022-09-28T00:09:16.707Z,98396.28
2022-09-28T00:11:46.958Z,98395.47
2022-09-28T00:14:13.707Z,98399.56
2022-09-28T00:16:43.884Z,98394.91
2022-09-28T00:19:12.512Z,98390.50
2022-09-28T00:21:40.829Z,98399.78
2022-09-28T00:24:17.242Z,98398.16
2022-09-28T00:26:55.488Z,98400.59
2022-09-28T00:29:26.587Z,98398.66
2022-09-28T00:32:02.301Z,98402.78
2022-09-28T00:34:31.985Z,98403.03
2022-09-28T00:36:59.571Z,98397.03
2022-09-28T00:39:27.139Z,98398.38
2022-09-28T00:41:54.751Z,98395.94
2022-09-28T00:44:24.337Z,98391.59
2022-09-28T00:47:11.733Z,98390.75
2022-09-28T00:49:57.014Z,98392.66
2022-09-28T00:52:32.643Z,98401.91
2022-09-28T00:55:02.403Z,98398.13
2022-09-28T00:57:30.619Z,98406.81
2022-09-28T00:59:59.822Z,98400.53
2022-09-28T01:02:26.755Z,98399.16
2022-09-28T01:04:53.891Z,98403.78
2022-09-28T01:07:21.779Z,98396.94
2022-09-28T01:09:48.687Z,98410.06
2022-09-28T01:12:15.344Z,98405.72
2022-09-28T01:14:43.621Z,98407.84
2022-09-28T01:17:12.971Z,98397.75
2022-09-28T01:20:12.366Z,98396.41
2022-09-28T01:22:47.951Z,98401.91
2022-09-28T01:25:33.412Z,98400.78
2022-09-28T01:28:18.189Z,98394.81
2022-09-28T01:30:55.989Z,98395.94
2022-09-28T01:33:27.131Z,98393.19
2022-09-28T01:35:59.712Z,98392.09
2022-09-28T01:38:33.707Z,98394.84
2022-09-28T01:41:01.291Z,98385.84
2022-09-28T01:43:30.549Z,98388.84
2022-09-28T01:46:06.905Z,98389.94
2022-09-28T01:48:43.782Z,98386.66
2022-09-28T01:51:35.930Z,98391.53
2022-09-28T01:54:11.749Z,98389.63
2022-09-28T01:57:18.888Z,98387.44
2022-09-28T01:59:55.838Z,98388.78
2022-09-28T02:02:27.527Z,98390.41
2022-09-28T02:05:00.093Z,98388.75
2022-09-28T02:07:38.783Z,98385.69
2022-09-28T02:10:16.002Z,98381.09
2022-09-28T02:12:59.642Z,98386.56
2022-09-28T02:15:37.333Z,98384.34
2022-09-28T02:18:04.341Z,98381.34
2022-09-28T02:20:34.114Z,98384.88
2022-09-28T02:23:04.623Z,98385.97
2022-09-28T02:25:42.972Z,98385.97
2022-09-28T02:28:13.711Z,98377.50
2022-09-28T02:30:42.398Z,98381.59
2022-09-28T02:33:36.028Z,98373.41
2022-09-28T02:36:03.753Z,98369.31
2022-09-28T02:38:33.682Z,98385.66
2022-09-28T02:41:27.196Z,98382.94
2022-09-28T02:44:06.430Z,98382.13
2022-09-28T02:46:58.068Z,98380.50
2022-09-28T02:49:41.464Z,98380.22
2022-09-28T02:52:15.754Z,98382.41
2022-09-28T02:55:06.355Z,98387.28
2022-09-28T02:57:44.771Z,98389.75
2022-09-28T03:00:17.564Z,98393.03
2022-09-28T03:03:08.495Z,98394.13
2022-09-28T03:05:56.785Z,98384.81
2022-09-28T03:08:26.347Z,98390.78
2022-09-28T03:11:00.990Z,98390.78
2022-09-28T03:13:29.170Z,98398.44
2022-09-28T03:16:17.270Z,98388.63
2022-09-28T03:18:44.617Z,98396.25
2022-09-28T03:21:12.783Z,98393.78
2022-09-28T03:23:40.661Z,98394.06
2022-09-28T03:26:15.915Z,98391.59
2022-09-28T03:28:42.875Z,98391.25
2022-09-28T03:31:09.688Z,98391.00
2022-09-28T03:33:36.423Z,98392.88
2022-09-28T03:36:03.122Z,98400.19
2022-09-28T03:38:29.841Z,98397.16
2022-09-28T03:40:58.562Z,98398.53
2022-09-28T03:43:26.578Z,98395.50
2022-09-28T03:45:57.077Z,98395.19
2022-09-28T03:48:32.426Z,98392.13
2022-09-28T03:51:01.968Z,98397.00
2022-09-28T03:53:29.766Z,98386.88
2022-09-28T03:56:02.094Z,98389.34
2022-09-28T03:58:28.828Z,98397.50
2022-09-28T04:01:01.890Z,98401.88
2022-09-28T04:03:28.539Z,98407.13
2022-09-28T04:05:55.159Z,98408.44
2022-09-28T04:08:21.793Z,98406.50
2022-09-28T04:10:48.420Z,98405.94
2022-09-28T04:13:15.232Z,98413.78
2022-09-28T04:15:42.436Z,98413.72
2022-09-28T04:18:12.578Z,98413.72
2022-09-28T04:20:41.471Z,98413.94
2022-09-28T04:23:08.121Z,98415.06
2022-09-28T04:25:34.753Z,98411.50
2022-09-28T04:28:20.071Z,98415.84
2022-09-28T04:30:47.913Z,98415.06
2022-09-28T04:33:14.600Z,98419.19
2022-09-28T04:35:41.356Z,98415.41
2022-09-28T04:38:07.973Z,98421.16
2022-09-28T04:40:34.660Z,98415.25
2022-09-28T04:43:01.392Z,98422.94
2022-09-28T04:45:28.638Z,98417.25
2022-09-28T04:47:55.359Z,98418.91
2022-09-28T04:50:22.064Z,98415.16
2022-09-28T04:52:48.721Z,98424.69
2022-09-28T04:55:16.960Z,98421.16
2022-09-28T04:57:43.562Z,98414.06
2022-09-28T05:00:11.088Z,98424.13
2022-09-28T05:02:37.811Z,98416.75
2022-09-28T05:05:04.840Z,98414.56
2022-09-28T05:07:31.427Z,98417.81
2022-09-28T05:09:58.099Z,98412.66
2022-09-28T05:12:24.735Z,98410.22
2022-09-28T05:14:51.441Z,98421.63
2022-09-28T05:17:18.126Z,98416.75
2022-09-28T05:19:44.758Z,98414.56
2022-09-28T05:22:14.848Z,98410.22
2022-09-28T05:24:41.822Z,98403.66
2022-09-28T05:27:08.742Z,98409.88
2022-09-28T05:29:35.394Z,98410.69
2022-09-28T05:32:02.357Z,98413.41
2022-09-28T05:34:29.291Z,98414.47
2022-09-28T05:36:55.958Z,98416.63
2022-09-28T05:39:22.690Z,98410.66
2022-09-28T05:41:49.400Z,98411.75
2022-09-28T05:44:16.179Z,98415.00
2022-09-28T05:46:42.877Z,98417.75
2022-09-28T05:49:09.508Z,98409.53
2022-09-28T05:51:36.131Z,98417.69
2022-09-28T05:54:05.892Z,98411.75
2022-09-28T05:56:33.380Z,98417.69
2022-09-28T05:59:00.118Z,98413.63
2022-09-28T06:01:26.961Z,98407.63
2022-09-28T06:03:53.689Z,98408.94
2022-09-28T06:06:20.344Z,98410.81
2022-09-28T06:08:48.451Z,98417.88
2022-09-28T06:11:15.116Z,98411.88
2022-09-28T06:13:41.828Z,98415.69
2022-09-28T06:16:08.612Z,98414.88
2022-09-28T06:18:35.482Z,98412.38
2022-09-28T06:21:02.867Z,98422.50
2022-09-28T06:23:29.484Z,98421.16
2022-09-28T06:25:56.178Z,98422.56
2022-09-28T06:28:22.871Z,98426.66
2022-09-28T06:30:49.515Z,98424.19
2022-09-28T06:33:16.406Z,98421.78
2022-09-28T06:35:43.126Z,98434.03
2022-09-28T06:38:10.368Z,98423.47
2022-09-28T06:40:37.882Z,98430.28
2022-09-28T06:43:10.861Z,98428.66
2022-09-28T06:45:38.767Z,98423.25
2022-09-28T06:48:06.231Z,98425.19
2022-09-28T06:50:39.111Z,98437.22
2022-09-28T06:53:09.427Z,98432.34
2022-09-28T06:55:42.994Z,98442.72
2022-09-28T06:58:15.521Z,98435.94
2022-09-28T07:00:42.455Z,98438.69
2022-09-28T07:03:13.207Z,98447.44
2022-09-28T07:05:51.327Z,98451.00
2022-09-28T07:08:18.352Z,98458.72
2022-09-28T07:10:47.437Z,98460.09
2022-09-28T07:13:40.981Z,98456.59
2022-09-28T07:16:02.535Z,98462.38
2022-09-28T07:18:29.926Z,98460.47
2022-09-28T07:20:57.462Z,98455.09
2022-09-28T07:23:26.270Z,98457.25
2022-09-28T07:26:05.729Z,98459.50
2022-09-28T07:28:34.103Z,98457.59
2022-09-28T07:31:03.414Z,98450.00
2022-09-28T07:33:32.827Z,98459.84
2022-09-28T07:36:00.922Z,98461.78
2022-09-28T07:38:27.696Z,98458.53
2022-09-28T07:41:11.914Z,98455.81
2022-09-28T07:43:40.204Z,98457.22
2022-09-28T07:46:10.000Z,98463.22
2022-09-28T07:48:37.940Z,98467.63
2022-09-28T07:51:04.894Z,98467.66
2022-09-28T07:53:31.649Z,98463.84
2022-09-28T07:56:07.324Z,98461.41
2022-09-28T07:58:38.910Z,98470.41
2022-09-28T08:01:11.511Z,98465.53
2022-09-28T08:03:39.260Z,98477.56
2022-09-28T08:06:09.811Z,98474.81
2022-09-28T08:08:36.664Z,98481.94
2022-09-28T08:11:05.964Z,98489.59
2022-09-28T08:13:32.670Z,98478.69
2022-09-28T08:16:04.111Z,98480.91
2022-09-28T08:18:31.496Z,98476.00
2022-09-28T08:21:16.778Z,98479.25
2022-09-28T08:23:43.543Z,98483.63
2022-09-28T08:26:15.248Z,98482.53
2022-09-28T08:28:43.529Z,98485.28
2022-09-28T08:31:10.278Z,98484.97
2022-09-28T08:33:36.998Z,98485.25
2022-09-28T08:36:07.255Z,98481.16
2022-09-28T08:38:34.275Z,98480.31
2022-09-28T08:41:32.344Z,98489.03
2022-09-28T08:44:35.401Z,98490.13
2022-09-28T08:47:35.134Z,98478.09
2022-09-28T08:50:05.854Z,98481.06
2022-09-28T08:52:46.548Z,98479.13
2022-09-28T08:55:19.363Z,98479.94
2022-09-28T08:58:11.949Z,98482.38
2022-09-28T09:00:53.109Z,98484.84
2022-09-28T09:03:26.128Z,98487.88
2022-09-28T09:06:30.478Z,98492.50
2022-09-28T09:09:05.195Z,98487.84
2022-09-28T09:11:55.588Z,98496.31
2022-09-28T09:14:39.379Z,98491.88
2022-09-28T09:17:28.374Z,98486.13
2022-09-28T09:20:06.363Z,98494.84
2022-09-28T09:22:56.729Z,98488.53
2022-09-28T09:25:29.612Z,98491.78
2022-09-28T09:28:07.943Z,98488.47
2022-09-28T09:31:04.937Z,98489.56
2022-09-28T09:34:09.980Z,98488.75
2022-09-28T09:36:42.933Z,98487.34
2022-09-28T09:39:12.338Z,98489.75
2022-09-28T09:41:54.819Z,98492.44
2022-09-28T09:44:29.255Z,98483.66
2022-09-28T09:47:22.078Z,98491.28
2022-09-28T09:49:56.111Z,98481.06
2022-09-28T09:55:11.046Z,98492.84
2022-09-28T09:57:46.767Z,98491.53
2022-09-28T10:00:16.133Z,98495.31
2022-09-28T10:02:46.621Z,98489.25
2022-09-28T10:05:13.255Z,98496.88
2022-09-28T10:07:44.935Z,98478.16
2022-09-28T10:10:21.571Z,98494.56
2022-09-28T10:12:51.334Z,98485.31
2022-09-28T10:15:28.472Z,98485.25
2022-09-28T10:17:58.737Z,98497.50
2022-09-28T10:20:25.760Z,98492.53
2022-09-28T10:22:56.310Z,98491.38
2022-09-28T10:25:23.906Z,98482.50
2022-09-28T10:27:52.700Z,98484.97
2022-09-28T10:30:24.676Z,98483.00
2022-09-28T10:32:55.495Z,98486.50
2022-09-28T10:35:29.648Z,98479.16
2022-09-28T10:38:15.180Z,98492.94
2022-09-28T10:40:46.025Z,98487.09
2022-09-28T10:43:18.638Z,98484.19
2022-09-28T10:46:23.626Z,98488.91
2022-09-28T10:48:59.970Z,98492.69
2022-09-28T10:51:43.538Z,98484.34
2022-09-28T10:54:31.079Z,98476.38
2022-09-28T10:56:59.086Z,98487.94
2022-09-28T10:59:28.714Z,98478.22
2022-09-28T11:02:03.356Z,98479.28
2022-09-28T11:04:39.229Z,98481.47
2022-09-28T11:07:21.120Z,98478.91
2022-09-28T11:09:49.775Z,98473.31
2022-09-28T11:12:29.271Z,98480.47
2022-09-28T11:15:00.873Z,98485.72
2022-09-28T11:17:38.621Z,98490.50
2022-09-28T11:20:28.610Z,98478.84
2022-09-28T11:23:01.438Z,98488.56
2022-09-28T11:25:31.397Z,98494.34
2022-09-28T11:28:01.694Z,98488.09
2022-09-28T11:30:33.688Z,98483.59
2022-09-28T11:33:12.459Z,98489.56
2022-09-28T11:36:02.086Z,98487.84
2022-09-28T11:39:06.295Z,98492.00
2022-09-28T11:41:58.561Z,98495.31
2022-09-28T11:44:28.230Z,98487.94
2022-09-28T11:47:29.375Z,98486.53
2022-09-28T11:50:23.749Z,98484.94
2022-09-28T11:53:10.087Z,98481.38
2022-09-28T11:55:43.828Z,98483.00
2022-09-28T11:58:21.011Z,98466.13
2022-09-28T12:00:57.552Z,98472.28
2022-09-28T12:03:39.933Z,98472.38
2022-09-28T12:06:14.653Z,98471.56
2022-09-28T12:08:46.994Z,98481.81
2022-09-28T12:11:35.962Z,98470.16
2022-09-28T12:14:10.428Z,98477.50
2022-09-28T12:17:05.290Z,98469.34
2022-09-28T12:19:58.348Z,98473.91
2022-09-28T12:22:33.229Z,98453.75
2022-09-28T12:25:02.073Z,98454.00
2022-09-28T12:27:55.319Z,98459.16
2022-09-28T12:30:25.720Z,98461.31
2022-09-28T12:33:13.434Z,98454.16
2022-09-28T12:35:58.723Z,98466.50
2022-09-28T12:39:40.962Z,98448.03
2022-09-28T12:42:31.702Z,98439.53
2022-09-28T12:45:38.449Z,98437.41
2022-09-28T12:48:41.060Z,98438.94
2022-09-28T12:51:26.294Z,98450.06
2022-09-28T12:54:20.696Z,98431.63
2022-09-28T12:57:02.180Z,98431.00
2022-09-28T12:59:39.780Z,98423.19
2022-09-28T13:02:44.188Z,98423.22
2022-09-28T13:05:35.308Z,98427.34
2022-09-28T13:08:11.473Z,98434.97
2022-09-28T13:10:57.413Z,98437.13
2022-09-28T13:14:01.854Z,98438.25
2022-09-28T13:17:06.894Z,98440.19
2022-09-28T13:20:11.217Z,98435.16
2022-09-28T13:22:51.416Z,98429.94
2022-09-28T13:25:20.779Z,98426.78
2022-09-28T13:28:05.498Z,98424.28
2022-09-28T13:30:38.515Z,98423.25
2022-09-28T13:33:07.626Z,98415.00
2022-09-28T13:35:35.018Z,98425.13
2022-09-28T13:38:17.471Z,98423.69
2022-09-28T13:41:06.113Z,98426.66
2022-09-28T13:43:52.228Z,98425.13
2022-09-28T13:46:35.358Z,98421.03
2022-09-28T13:49:20.435Z,98412.31
2022-09-28T13:52:05.311Z,98419.66
2022-09-28T13:54:42.932Z,98419.44
2022-09-28T13:57:19.841Z,98421.28
2022-09-28T14:00:05.778Z,98422.91
2022-09-28T14:02:45.244Z,98425.03
2022-09-28T14:05:26.880Z,98428.53
2022-09-28T14:08:08.608Z,98408.53
2022-09-28T14:10:57.395Z,98408.53
2022-09-28T14:13:42.458Z,98412.25
2022-09-28T14:16:36.281Z,98409.13
2022-09-28T14:19:07.027Z,98405.56
2022-09-28T14:21:58.397Z,98404.84
2022-09-28T14:24:53.035Z,98403.34
2022-09-28T14:27:32.541Z,98405.09
2022-09-28T14:30:20.909Z,98402.22
2022-09-28T14:32:56.982Z,98392.84
2022-09-28T14:35:43.767Z,98401.63
2022-09-28T14:38:38.362Z,98396.72
2022-09-28T14:41:18.111Z,98401.31
2022-09-28T14:43:44.791Z,98388.19
2022-09-28T14:46:11.534Z,98387.97
2022-09-28T14:48:54.343Z,98396.16
2022-09-28T14:51:26.978Z,98389.84
2022-09-28T14:53:56.480Z,98389.59
2022-09-28T14:56:26.165Z,98387.50
2022-09-28T14:58:58.097Z,98387.41
2022-09-28T15:01:26.274Z,98389.84
2022-09-28T15:03:56.665Z,98395.34
2022-09-28T15:06:24.759Z,98384.75
2022-09-28T15:08:51.552Z,98389.94
2022-09-28T15:11:26.397Z,98393.13
2022-09-28T15:14:06.468Z,98385.56
2022-09-28T15:16:33.752Z,98386.72
2022-09-28T15:19:01.073Z,98385.31
2022-09-28T15:21:38.485Z,98388.19
2022-09-28T15:24:27.187Z,98390.13
2022-09-28T15:26:54.557Z,98399.41
2022-09-28T15:29:27.424Z,98397.47
2022-09-28T15:31:54.772Z,98394.91
2022-09-28T15:34:47.460Z,98390.41
2022-09-28T15:37:18.912Z,98400.22
2022-09-28T15:39:48.352Z,98402.97
2022-09-28T15:42:17.208Z,98401.53
2022-09-28T15:45:01.665Z,98392.47
2022-09-28T15:47:31.912Z,98393.78
2022-09-28T15:50:05.188Z,98390.72
2022-09-28T15:53:00.799Z,98401.22
2022-09-28T15:55:33.177Z,98395.88
2022-09-28T15:58:08.814Z,98392.09
2022-09-28T16:00:35.928Z,98396.50
2022-09-28T16:03:08.790Z,98408.31
2022-09-28T16:05:46.232Z,98402.00
2022-09-28T16:08:27.309Z,98409.41
2022-09-28T16:11:18.439Z,98402.25
2022-09-28T16:14:06.381Z,98402.53
2022-09-28T16:16:46.938Z,98394.06
2022-09-28T16:19:30.148Z,98395.56
2022-09-28T16:21:59.454Z,98396.28
2022-09-28T16:24:30.390Z,98393.22
2022-09-28T16:27:03.040Z,98399.06
2022-09-28T16:29:42.036Z,98397.03
2022-09-28T16:32:24.758Z,98397.94
2022-09-28T16:35:10.863Z,98398.16
2022-09-28T16:37:40.929Z,98408.72
2022-09-28T16:40:08.943Z,98405.94
2022-09-28T16:42:36.973Z,98405.56
2022-09-28T16:45:05.379Z,98411.13
2022-09-28T16:47:36.090Z,98406.03
2022-09-28T16:50:06.549Z,98405.06
2022-09-28T16:52:51.746Z,98402.41
2022-09-28T16:58:06.169Z,98401.50
2022-09-28T17:00:33.259Z,98413.47
2022-09-28T17:03:00.087Z,98406.41
2022-09-28T17:05:26.999Z,98400.97
2022-09-28T17:08:00.554Z,98411.25
2022-09-28T17:13:40.935Z,98411.16
2022-09-28T17:16:13.163Z,98406.44
2022-09-28T17:18:40.315Z,98405.91
2022-09-28T17:21:12.585Z,98408.13
2022-09-28T17:23:39.243Z,98411.28
2022-09-28T17:26:06.356Z,98397.66
2022-09-28T17:28:35.842Z,98408.94
2022-09-28T17:31:04.796Z,98397.19
2022-09-28T17:33:31.547Z,98407.97
2022-09-28T17:36:04.830Z,98402.50
2022-09-28T17:38:32.160Z,98404.41
2022-09-28T17:40:58.884Z,98400.97
2022-09-28T17:43:25.544Z,98400.66
2022-09-28T17:45:52.271Z,98409.19
2022-09-28T17:48:24.562Z,98412.50
2022-09-28T17:50:51.384Z,98405.44
2022-09-28T17:53:18.357Z,98418.44
2022-09-28T17:55:44.984Z,98410.53
2022-09-28T17:58:21.368Z,98414.38
2022-09-28T18:00:51.211Z,98405.66
2022-09-28T18:03:22.917Z,98409.56
2022-09-28T18:05:56.432Z,98414.81
2022-09-28T18:08:23.070Z,98418.66
2022-09-28T18:10:50.440Z,98414.31
2022-09-28T18:13:17.133Z,98415.72
2022-09-28T18:15:44.161Z,98414.09
2022-09-28T18:18:12.635Z,98414.13
2022-09-28T18:20:39.638Z,98419.88
2022-09-28T18:23:06.257Z,98425.69
2022-09-28T18:25:32.841Z,98419.13
2022-09-28T18:28:00.210Z,98423.28
2022-09-28T18:30:27.949Z,98430.59
2022-09-28T18:32:54.601Z,98424.69
2022-09-28T18:35:23.209Z,98425.75
2022-09-28T18:37:50.519Z,98425.78
2022-09-28T18:40:17.886Z,98431.22
2022-09-28T18:42:44.551Z,98429.66
2022-09-28T18:45:11.491Z,98430.78
2022-09-28T18:47:39.086Z,98423.09
2022-09-28T18:50:06.522Z,98429.41
2022-09-28T18:52:36.588Z,98428.88
2022-09-28T18:55:05.329Z,98423.16
2022-09-28T18:57:33.632Z,98429.72
2022-09-28T19:00:01.550Z,98424.50
2022-09-28T19:02:28.264Z,98419.34
2022-09-28T19:04:54.997Z,98423.72
2022-09-28T19:07:21.662Z,98431.41
2022-09-28T19:09:48.977Z,98435.00
2022-09-28T19:12:16.184Z,98439.16
2022-09-28T19:14:42.797Z,98439.44
2022-09-28T19:17:10.178Z,98432.66
2022-09-28T19:19:36.804Z,98431.28
2022-09-28T19:22:03.864Z,98434.31
2022-09-28T19:24:31.822Z,98438.72
2022-09-28T19:26:58.525Z,98434.34
2022-09-28T19:29:25.237Z,98438.75
2022-09-28T19:31:52.715Z,98437.91
2022-09-28T19:34:19.602Z,98436.56
2022-09-28T19:36:46.805Z,98439.31
2022-09-28T19:39:15.018Z,98440.63
2022-09-28T19:41:51.392Z,98439.00
2022-09-28T19:44:26.988Z,98436.25
2022-09-28T19:47:07.478Z,98435.47
2022-09-28T19:49:39.599Z,98437.09
2022-09-28T19:52:17.633Z,98446.94
2022-09-28T19:54:59.305Z,98440.09
2022-09-28T19:57:28.396Z,98439.78
2022-09-28T20:00:01.794Z,98443.63
2022-09-28T20:02:29.339Z,98438.72
2022-09-28T20:04:56.134Z,98440.34
2022-09-28T20:07:22.999Z,98448.84
2022-09-28T20:09:49.763Z,98444.19
2022-09-28T20:12:20.249Z,98445.25
2022-09-28T20:14:47.095Z,98441.72
2022-09-28T20:17:14.331Z,98434.56
2022-09-28T20:19:41.099Z,98433.47
2022-09-28T20:22:07.847Z,98443.31
2022-09-28T20:24:34.686Z,98445.50
2022-09-28T20:27:01.556Z,98446.31
2022-09-28T20:29:29.313Z,98443.31
2022-09-28T20:31:56.738Z,98445.78
2022-09-28T20:34:23.913Z,98438.66
2022-09-28T20:36:50.554Z,98447.16
2022-09-28T20:39:17.227Z,98450.16
2022-09-28T20:41:46.120Z,98440.34
2022-09-28T20:44:13.306Z,98441.69
2022-09-28T20:46:40.871Z,98446.94
2022-09-28T20:49:07.818Z,98444.75
2022-09-28T20:51:35.153Z,98438.72
2022-09-28T20:54:01.816Z,98438.75
2022-09-28T20:56:31.479Z,98431.91
2022-09-28T20:58:58.793Z,98430.84
2022-09-28T21:01:30.198Z,98431.34
2022-09-28T21:04:02.179Z,98427.53
2022-09-28T21:06:34.694Z,98428.59
2022-09-28T21:09:02.657Z,98430.00
2022-09-28T21:11:29.800Z,98419.88
2022-09-28T21:14:03.002Z,98425.06
2022-09-28T21:16:31.964Z,98416.88
2022-09-28T21:18:59.238Z,98409.53
2022-09-28T21:21:26.378Z,98416.09
2022-09-28T21:23:57.337Z,98410.34
2022-09-28T21:26:26.504Z,98408.16
2022-09-28T21:28:54.478Z,98416.63
2022-09-28T21:31:26.254Z,98409.78
2022-09-28T21:33:55.676Z,98410.06
2022-09-28T21:36:22.452Z,98411.44
2022-09-28T21:38:49.417Z,98409.81
2022-09-28T21:41:16.510Z,98409.22
2022-09-28T21:43:46.065Z,98410.06
2022-09-28T21:46:13.398Z,98412.78
2022-09-28T21:48:40.164Z,98413.06
2022-09-28T21:51:09.243Z,98412.53
2022-09-28T21:53:38.087Z,98405.94
2022-09-28T21:56:06.747Z,98409.78
2022-09-28T21:58:35.399Z,98415.22
2022-09-28T22:01:05.054Z,98405.94
2022-09-28T22:03:33.394Z,98409.19
2022-09-28T22:06:00.047Z,98404.56
2022-09-28T22:08:27.127Z,98402.34
2022-09-28T22:11:05.678Z,98406.19
2022-09-28T22:13:41.649Z,98408.63
2022-09-28T22:16:09.971Z,98411.09
2022-09-28T22:18:37.319Z,98413.25
2022-09-28T22:21:10.091Z,98398.22
2022-09-28T22:23:38.102Z,98409.44
2022-09-28T22:26:10.851Z,98415.19
2022-09-28T22:28:38.414Z,98412.44
2022-09-28T22:31:06.099Z,98408.59
2022-09-28T22:33:32.807Z,98406.94
2022-09-28T22:35:59.471Z,98408.03
2022-09-28T22:38:26.205Z,98402.28
2022-09-28T22:40:55.612Z,98403.09
2022-09-28T22:43:23.631Z,98403.38
2022-09-28T22:45:51.382Z,98403.09
2022-09-28T22:48:18.615Z,98392.97
2022-09-28T22:50:50.349Z,98400.66
2022-09-28T22:53:17.854Z,98391.34
2022-09-28T22:55:44.724Z,98395.16
2022-09-28T22:58:11.784Z,98396.81
2022-09-28T23:00:38.515Z,98398.19
2022-09-28T23:03:05.343Z,98389.44
2022-09-28T23:05:32.368Z,98386.44
2022-09-28T23:07:59.036Z,98378.78
2022-09-28T23:10:25.717Z,98387.28
2022-09-28T23:12:55.205Z,98379.59
2022-09-28T23:15:22.983Z,98386.19
2022-09-28T23:17:53.066Z,98375.78
2022-09-28T23:20:23.702Z,98374.69
2022-09-28T23:22:50.750Z,98381.00
2022-09-28T23:25:18.421Z,98373.31
2022-09-28T23:27:46.942Z,98368.69
2022-09-28T23:30:15.441Z,98371.16
2022-09-28T23:32:42.506Z,98374.72
2022-09-28T23:35:09.851Z,98363.78
2022-09-28T23:37:37.412Z,98369.53
2022-09-28T23:40:05.781Z,98362.72
2022-09-28T23:42:32.584Z,98361.91
2022-09-28T23:44:59.244Z,98358.06
2022-09-28T23:47:26.105Z,98358.66
2022-09-28T23:49:52.811Z,98351.28
2022-09-28T23:52:19.478Z,98345.53
2022-09-28T23:54:46.107Z,98337.88
2022-09-28T23:57:12.824Z,98333.81
2022-09-28T23:59:39.682Z,98325.84
